Adapazari, Turkey

7:13 AM EEST on July 28, 2014 (GMT +0300)
Yenisehir Air Base (LTBR) Elev 764 ft | 40.26 °N, 29.56 °E | Change Station

Current weather conditions updated 23 minutes ago

Clear
Clear
66 °F
Feels Like 66 °F
N
2
Wind Variable Wind from Variable

Today is forecast to be Warmer than yesterday.

Today
High -- | Low -- °F
--% Chance of Precip.
Yesterday
High -- | Low -- °F
Precip. -- in
5:50 AM 8:18 PM
New Moon, 1% visible
Pressure 29.95 in
Visibility -9999.0 miles
Clouds
Dew Point 64 °F
Humidity 94%
Rainfall 0.00 in
Snow Depth Not available.
UV Not available.
Pollen Not available.
Air Quality Not available.
Flu Activity Not available.
METAR LTBR 280350Z VRB02KT CAVOK 19/18 Q1014 NOSIG

More Conditions Fewer Conditions

Pressure 29.95 in
Visibility -9999.0 miles
Clouds
Dew Point 64 °F
Humidity 94%
Rainfall 0.00 in
Snow Depth Not available.
UV Not available.
Pollen Not available.
Air Quality Not available.
Flu Activity Not available.
METAR LTBR 280350Z VRB02KT CAVOK 19/18 Q1014 NOSIG

More Conditions Fewer Conditions

10-Day Weather Forecast

Almanac

Astronomy

Jul. 28, 2014 Rise Set
Actual Time 5:50 AM EEST 8:18 PM EEST
Civil Twilight 5:19 AM EEST 8:49 PM EEST
Nautical Twilight 4:40 AM EEST 9:28 PM EEST
Astronomical Twilight 3:57 AM EEST 10:10 PM EEST
Moon 7:14 AM EEST 8:48 PM EEST
Length of Visible Light 15h 29m
Length of Day
14h 27m
Tomorrow will be 1m 56s shorter.
New Moon, 1% of the Moon is Illuminated
Today
New Moon
Aug 3
First Quarter
Aug 10
Full
Aug 17
Last Quarter
Aug 25
New

Yesterday's Extremes

Country Highs Country Lows

Community

WunderPhotos

Upload Photos

1,738,299 photos uploaded!

Nearby

Snow Depth

Not available.

Earthquake Activity

City Distance Mag. Time & Date
No recent earthquake activity has been reported nearby.
Minimum magnitude displayed is 2.5.

Coastal Water Temperatures

Place Temperature
No Stations Reporting

Nearby Weather Stations

There are no personal weather stations in this area.